sensor_id;sensor_type;location;lat;lon;timestamp;P1;durP1;ratioP1;P2;durP2;ratioP2
67156;SDS011;54086;50.126;8.710;2023-03-13T00:02:01;14.60;;;2.72;;
67156;SDS011;54086;50.126;8.710;2023-03-13T00:04:30;17.55;;;2.90;;
67156;SDS011;54086;50.126;8.710;2023-03-13T00:06:55;14.65;;;2.85;;
67156;SDS011;54086;50.126;8.710;2023-03-13T00:09:21;15.17;;;3.03;;
67156;SDS011;54086;50.126;8.710;2023-03-13T00:11:48;12.52;;;2.40;;
67156;SDS011;54086;50.126;8.710;2023-03-13T00:14:13;13.70;;;2.20;;
67156;SDS011;54086;50.126;8.710;2023-03-13T00:16:39;14.60;;;2.80;;
67156;SDS011;54086;50.126;8.710;2023-03-13T00:19:05;16.53;;;3.20;;
67156;SDS011;54086;50.126;8.710;2023-03-13T00:21:33;11.93;;;2.40;;
67156;SDS011;54086;50.126;8.710;2023-03-13T00:24:01;14.82;;;2.78;;
67156;SDS011;54086;50.126;8.710;2023-03-13T00:26:28;11.38;;;2.40;;
67156;SDS011;54086;50.126;8.710;2023-03-13T00:28:55;13.13;;;3.10;;
67156;SDS011;54086;50.126;8.710;2023-03-13T00:31:25;14.23;;;2.50;;
67156;SDS011;54086;50.126;8.710;2023-03-13T00:33:53;10.00;;;2.40;;
67156;SDS011;54086;50.126;8.710;2023-03-13T00:36:22;15.38;;;2.60;;
67156;SDS011;54086;50.126;8.710;2023-03-13T00:38:57;17.40;;;2.90;;
67156;SDS011;54086;50.126;8.710;2023-03-13T00:41:31;14.20;;;3.13;;
67156;SDS011;54086;50.126;8.710;2023-03-13T00:43:57;11.23;;;2.38;;
67156;SDS011;54086;50.126;8.710;2023-03-13T00:46:25;12.30;;;2.22;;
67156;SDS011;54086;50.126;8.710;2023-03-13T00:48:53;13.85;;;2.38;;
67156;SDS011;54086;50.126;8.710;2023-03-13T00:51:18;11.60;;;3.10;;
67156;SDS011;54086;50.126;8.710;2023-03-13T00:53:45;13.03;;;2.70;;
67156;SDS011;54086;50.126;8.710;2023-03-13T00:56:12;14.00;;;2.33;;
67156;SDS011;54086;50.126;8.710;2023-03-13T00:58:39;16.20;;;2.50;;
67156;SDS011;54086;50.126;8.710;2023-03-13T01:01:16;15.68;;;2.53;;
67156;SDS011;54086;50.126;8.710;2023-03-13T01:03:46;12.63;;;2.63;;
67156;SDS011;54086;50.126;8.710;2023-03-13T01:06:17;13.63;;;2.78;;
67156;SDS011;54086;50.126;8.710;2023-03-13T01:08:46;13.32;;;2.60;;
67156;SDS011;54086;50.126;8.710;2023-03-13T01:11:13;12.27;;;2.20;;
67156;SDS011;54086;50.126;8.710;2023-03-13T01:13:40;16.20;;;2.90;;
67156;SDS011;54086;50.126;8.710;2023-03-13T01:16:16;10.77;;;2.10;;
67156;SDS011;54086;50.126;8.710;2023-03-13T01:18:47;9.63;;;2.30;;
67156;SDS011;54086;50.126;8.710;2023-03-13T01:21:51;12.45;;;2.55;;
67156;SDS011;54086;50.126;8.710;2023-03-13T01:24:16;12.87;;;2.37;;
67156;SDS011;54086;50.126;8.710;2023-03-13T01:26:43;11.77;;;2.05;;
67156;SDS011;54086;50.126;8.710;2023-03-13T01:29:08;11.87;;;2.70;;
67156;SDS011;54086;50.126;8.710;2023-03-13T01:31:34;17.80;;;2.43;;
67156;SDS011;54086;50.126;8.710;2023-03-13T01:34:03;15.25;;;2.65;;
67156;SDS011;54086;50.126;8.710;2023-03-13T01:36:29;10.88;;;2.40;;
67156;SDS011;54086;50.126;8.710;2023-03-13T01:38:58;11.83;;;2.27;;
67156;SDS011;54086;50.126;8.710;2023-03-13T01:41:27;12.32;;;2.38;;
67156;SDS011;54086;50.126;8.710;2023-03-13T01:43:55;13.32;;;2.35;;
67156;SDS011;54086;50.126;8.710;2023-03-13T01:46:21;12.02;;;3.05;;
67156;SDS011;54086;50.126;8.710;2023-03-13T01:48:50;15.57;;;2.40;;
67156;SDS011;54086;50.126;8.710;2023-03-13T01:51:24;9.13;;;2.30;;
67156;SDS011;54086;50.126;8.710;2023-03-13T01:53:59;13.65;;;2.28;;
67156;SDS011;54086;50.126;8.710;2023-03-13T01:56:28;10.20;;;2.20;;
67156;SDS011;54086;50.126;8.710;2023-03-13T01:59:17;16.48;;;2.63;;
67156;SDS011;54086;50.126;8.710;2023-03-13T02:01:53;10.82;;;2.70;;
67156;SDS011;54086;50.126;8.710;2023-03-13T02:04:22;12.60;;;2.97;;
67156;SDS011;54086;50.126;8.710;2023-03-13T02:06:52;10.27;;;2.17;;
67156;SDS011;54086;50.126;8.710;2023-03-13T02:09:31;14.48;;;2.20;;
67156;SDS011;54086;50.126;8.710;2023-03-13T02:12:01;13.52;;;2.42;;
67156;SDS011;54086;50.126;8.710;2023-03-13T02:14:33;10.18;;;2.00;;
67156;SDS011;54086;50.126;8.710;2023-03-13T02:17:01;11.77;;;2.53;;
67156;SDS011;54086;50.126;8.710;2023-03-13T02:22:49;12.05;;;2.65;;
67156;SDS011;54086;50.126;8.710;2023-03-13T02:25:07;8.98;;;2.28;;
67156;SDS011;54086;50.126;8.710;2023-03-13T02:27:34;8.50;;;1.95;;
67156;SDS011;54086;50.126;8.710;2023-03-13T02:30:02;9.33;;;2.30;;
67156;SDS011;54086;50.126;8.710;2023-03-13T02:32:32;13.23;;;2.42;;
67156;SDS011;54086;50.126;8.710;2023-03-13T02:35:00;9.63;;;1.70;;
67156;SDS011;54086;50.126;8.710;2023-03-13T02:37:32;14.50;;;2.33;;
67156;SDS011;54086;50.126;8.710;2023-03-13T02:39:59;12.70;;;2.30;;
67156;SDS011;54086;50.126;8.710;2023-03-13T02:42:31;12.77;;;2.35;;
67156;SDS011;54086;50.126;8.710;2023-03-13T02:44:56;12.55;;;2.28;;
67156;SDS011;54086;50.126;8.710;2023-03-13T02:47:22;12.20;;;2.37;;
67156;SDS011;54086;50.126;8.710;2023-03-13T02:49:50;13.48;;;2.25;;
67156;SDS011;54086;50.126;8.710;2023-03-13T02:52:29;7.32;;;2.15;;
67156;SDS011;54086;50.126;8.710;2023-03-13T02:55:06;9.93;;;2.30;;
67156;SDS011;54086;50.126;8.710;2023-03-13T02:57:37;7.13;;;2.15;;
67156;SDS011;54086;50.126;8.710;2023-03-13T03:00:03;13.13;;;2.80;;
67156;SDS011;54086;50.126;8.710;2023-03-13T03:02:31;10.90;;;2.20;;
67156;SDS011;54086;50.126;8.710;2023-03-13T03:04:56;10.87;;;2.10;;
67156;SDS011;54086;50.126;8.710;2023-03-13T03:07:22;11.20;;;2.17;;
67156;SDS011;54086;50.126;8.710;2023-03-13T03:09:50;11.93;;;2.50;;
67156;SDS011;54086;50.126;8.710;2023-03-13T03:12:16;12.88;;;2.40;;
67156;SDS011;54086;50.126;8.710;2023-03-13T03:14:41;11.23;;;2.50;;
67156;SDS011;54086;50.126;8.710;2023-03-13T03:17:06;9.57;;;2.00;;
67156;SDS011;54086;50.126;8.710;2023-03-13T03:19:32;12.02;;;2.45;;
67156;SDS011;54086;50.126;8.710;2023-03-13T03:21:58;9.03;;;1.80;;
67156;SDS011;54086;50.126;8.710;2023-03-13T03:24:23;8.50;;;1.93;;
67156;SDS011;54086;50.126;8.710;2023-03-13T03:26:48;8.27;;;2.33;;
67156;SDS011;54086;50.126;8.710;2023-03-13T03:29:14;7.57;;;1.85;;
67156;SDS011;54086;50.126;8.710;2023-03-13T03:31:39;9.53;;;2.77;;
67156;SDS011;54086;50.126;8.710;2023-03-13T03:34:05;9.90;;;2.60;;
67156;SDS011;54086;50.126;8.710;2023-03-13T03:36:33;12.10;;;2.00;;
67156;SDS011;54086;50.126;8.710;2023-03-13T03:38:58;9.25;;;2.25;;
67156;SDS011;54086;50.126;8.710;2023-03-13T03:41:24;11.73;;;2.50;;
67156;SDS011;54086;50.126;8.710;2023-03-13T03:43:49;9.05;;;1.83;;
67156;SDS011;54086;50.126;8.710;2023-03-13T03:46:15;9.67;;;2.10;;
67156;SDS011;54086;50.126;8.710;2023-03-13T03:48:43;8.48;;;2.00;;
67156;SDS011;54086;50.126;8.710;2023-03-13T03:51:09;8.53;;;2.20;;
67156;SDS011;54086;50.126;8.710;2023-03-13T03:53:34;8.65;;;2.45;;
67156;SDS011;54086;50.126;8.710;2023-03-13T03:56:00;11.30;;;2.50;;
67156;SDS011;54086;50.126;8.710;2023-03-13T03:58:26;12.73;;;2.63;;
67156;SDS011;54086;50.126;8.710;2023-03-13T04:00:51;9.52;;;2.05;;
67156;SDS011;54086;50.126;8.710;2023-03-13T04:03:17;12.00;;;2.13;;
67156;SDS011;54086;50.126;8.710;2023-03-13T04:05:48;13.32;;;2.17;;
67156;SDS011;54086;50.126;8.710;2023-03-13T04:08:14;9.82;;;2.20;;
67156;SDS011;54086;50.126;8.710;2023-03-13T04:10:40;14.00;;;2.73;;
67156;SDS011;54086;50.126;8.710;2023-03-13T04:13:06;11.25;;;2.20;;
67156;SDS011;54086;50.126;8.710;2023-03-13T04:15:31;12.60;;;2.60;;
67156;SDS011;54086;50.126;8.710;2023-03-13T04:17:56;9.10;;;2.37;;
67156;SDS011;54086;50.126;8.710;2023-03-13T04:20:22;8.63;;;1.95;;
67156;SDS011;54086;50.126;8.710;2023-03-13T04:22:50;13.00;;;2.50;;
67156;SDS011;54086;50.126;8.710;2023-03-13T04:25:16;13.15;;;2.20;;
67156;SDS011;54086;50.126;8.710;2023-03-13T04:27:45;13.80;;;2.57;;
67156;SDS011;54086;50.126;8.710;2023-03-13T04:30:11;13.43;;;2.57;;
67156;SDS011;54086;50.126;8.710;2023-03-13T04:32:38;10.57;;;2.13;;
67156;SDS011;54086;50.126;8.710;2023-03-13T04:35:04;9.63;;;2.40;;
67156;SDS011;54086;50.126;8.710;2023-03-13T04:37:30;12.80;;;2.78;;
67156;SDS011;54086;50.126;8.710;2023-03-13T04:39:58;10.47;;;2.93;;
67156;SDS011;54086;50.126;8.710;2023-03-13T04:42:24;10.70;;;2.25;;
67156;SDS011;54086;50.126;8.710;2023-03-13T04:44:49;16.50;;;2.67;;
67156;SDS011;54086;50.126;8.710;2023-03-13T04:47:14;8.97;;;2.20;;
67156;SDS011;54086;50.126;8.710;2023-03-13T04:49:40;11.93;;;3.00;;
67156;SDS011;54086;50.126;8.710;2023-03-13T04:52:05;7.73;;;2.10;;
67156;SDS011;54086;50.126;8.710;2023-03-13T04:54:31;8.40;;;2.20;;
67156;SDS011;54086;50.126;8.710;2023-03-13T04:56:57;10.03;;;1.93;;
67156;SDS011;54086;50.126;8.710;2023-03-13T04:59:23;7.40;;;2.00;;
67156;SDS011;54086;50.126;8.710;2023-03-13T05:01:51;10.95;;;2.13;;
67156;SDS011;54086;50.126;8.710;2023-03-13T05:04:16;8.15;;;1.83;;
67156;SDS011;54086;50.126;8.710;2023-03-13T05:06:42;10.00;;;2.80;;
67156;SDS011;54086;50.126;8.710;2023-03-13T05:09:08;7.27;;;1.90;;
67156;SDS011;54086;50.126;8.710;2023-03-13T05:11:34;10.05;;;2.10;;
67156;SDS011;54086;50.126;8.710;2023-03-13T05:14:00;10.17;;;2.00;;
67156;SDS011;54086;50.126;8.710;2023-03-13T05:16:25;9.02;;;2.15;;
67156;SDS011;54086;50.126;8.710;2023-03-13T05:18:51;9.90;;;2.10;;
67156;SDS011;54086;50.126;8.710;2023-03-13T05:21:16;14.60;;;2.47;;
67156;SDS011;54086;50.126;8.710;2023-03-13T05:23:42;10.57;;;2.60;;
67156;SDS011;54086;50.126;8.710;2023-03-13T05:26:07;9.57;;;2.30;;
67156;SDS011;54086;50.126;8.710;2023-03-13T05:28:33;12.17;;;2.43;;
67156;SDS011;54086;50.126;8.710;2023-03-13T05:30:58;8.77;;;2.40;;
67156;SDS011;54086;50.126;8.710;2023-03-13T05:33:23;10.48;;;2.55;;
67156;SDS011;54086;50.126;8.710;2023-03-13T05:35:49;8.63;;;2.20;;
67156;SDS011;54086;50.126;8.710;2023-03-13T05:38:14;7.87;;;2.30;;
67156;SDS011;54086;50.126;8.710;2023-03-13T05:40:40;10.73;;;2.50;;
67156;SDS011;54086;50.126;8.710;2023-03-13T05:43:05;13.27;;;2.95;;
67156;SDS011;54086;50.126;8.710;2023-03-13T05:48:06;10.82;;;2.80;;
67156;SDS011;54086;50.126;8.710;2023-03-13T05:50:31;8.87;;;2.73;;
67156;SDS011;54086;50.126;8.710;2023-03-13T05:52:57;9.15;;;2.60;;
67156;SDS011;54086;50.126;8.710;2023-03-13T05:55:22;10.00;;;2.30;;
67156;SDS011;54086;50.126;8.710;2023-03-13T05:57:48;10.00;;;2.40;;
67156;SDS011;54086;50.126;8.710;2023-03-13T06:00:14;9.37;;;2.70;;
67156;SDS011;54086;50.126;8.710;2023-03-13T06:02:41;10.38;;;2.65;;
67156;SDS011;54086;50.126;8.710;2023-03-13T06:05:07;9.45;;;2.63;;
67156;SDS011;54086;50.126;8.710;2023-03-13T06:07:33;9.98;;;2.83;;
67156;SDS011;54086;50.126;8.710;2023-03-13T06:09:59;10.03;;;2.70;;
67156;SDS011;54086;50.126;8.710;2023-03-13T06:12:26;9.73;;;2.50;;
67156;SDS011;54086;50.126;8.710;2023-03-13T06:14:51;8.80;;;2.53;;
67156;SDS011;54086;50.126;8.710;2023-03-13T06:17:16;9.13;;;3.00;;
67156;SDS011;54086;50.126;8.710;2023-03-13T06:19:42;9.77;;;2.70;;
67156;SDS011;54086;50.126;8.710;2023-03-13T06:22:08;7.93;;;2.50;;
67156;SDS011;54086;50.126;8.710;2023-03-13T06:24:33;8.75;;;2.83;;
67156;SDS011;54086;50.126;8.710;2023-03-13T06:26:59;9.80;;;2.70;;
67156;SDS011;54086;50.126;8.710;2023-03-13T06:29:25;7.63;;;2.60;;
67156;SDS011;54086;50.126;8.710;2023-03-13T06:31:50;8.17;;;2.60;;
67156;SDS011;54086;50.126;8.710;2023-03-13T06:34:16;9.23;;;2.60;;
67156;SDS011;54086;50.126;8.710;2023-03-13T06:36:42;9.43;;;2.65;;
67156;SDS011;54086;50.126;8.710;2023-03-13T06:39:08;8.52;;;2.28;;
67156;SDS011;54086;50.126;8.710;2023-03-13T06:41:35;6.93;;;2.47;;
67156;SDS011;54086;50.126;8.710;2023-03-13T06:44:00;8.47;;;2.97;;
67156;SDS011;54086;50.126;8.710;2023-03-13T06:46:27;7.82;;;2.33;;
67156;SDS011;54086;50.126;8.710;2023-03-13T06:48:53;7.83;;;2.97;;
67156;SDS011;54086;50.126;8.710;2023-03-13T06:51:19;7.50;;;2.60;;
67156;SDS011;54086;50.126;8.710;2023-03-13T06:53:46;8.43;;;2.50;;
67156;SDS011;54086;50.126;8.710;2023-03-13T06:56:12;7.82;;;2.30;;
67156;SDS011;54086;50.126;8.710;2023-03-13T06:58:37;7.40;;;2.20;;
67156;SDS011;54086;50.126;8.710;2023-03-13T07:01:09;7.73;;;2.53;;
67156;SDS011;54086;50.126;8.710;2023-03-13T07:03:37;7.17;;;2.50;;
67156;SDS011;54086;50.126;8.710;2023-03-13T07:06:03;7.15;;;2.45;;
67156;SDS011;54086;50.126;8.710;2023-03-13T07:08:31;5.90;;;1.98;;
67156;SDS011;54086;50.126;8.710;2023-03-13T07:10:57;6.45;;;2.10;;
67156;SDS011;54086;50.126;8.710;2023-03-13T07:13:24;6.72;;;2.00;;
67156;SDS011;54086;50.126;8.710;2023-03-13T07:15:51;6.90;;;1.90;;
67156;SDS011;54086;50.126;8.710;2023-03-13T07:18:17;5.68;;;2.00;;
67156;SDS011;54086;50.126;8.710;2023-03-13T07:20:43;9.70;;;2.42;;
67156;SDS011;54086;50.126;8.710;2023-03-13T07:23:09;6.20;;;1.80;;
67156;SDS011;54086;50.126;8.710;2023-03-13T07:25:34;5.72;;;1.70;;
67156;SDS011;54086;50.126;8.710;2023-03-13T07:28:00;7.23;;;2.33;;
67156;SDS011;54086;50.126;8.710;2023-03-13T07:30:26;6.87;;;1.87;;
67156;SDS011;54086;50.126;8.710;2023-03-13T07:32:52;5.28;;;1.80;;
67156;SDS011;54086;50.126;8.710;2023-03-13T07:35:17;5.90;;;1.80;;
67156;SDS011;54086;50.126;8.710;2023-03-13T07:37:43;4.57;;;1.50;;
67156;SDS011;54086;50.126;8.710;2023-03-13T07:40:08;4.23;;;1.67;;
67156;SDS011;54086;50.126;8.710;2023-03-13T07:42:39;4.88;;;1.67;;
67156;SDS011;54086;50.126;8.710;2023-03-13T07:45:06;4.18;;;1.15;;
67156;SDS011;54086;50.126;8.710;2023-03-13T07:47:35;6.00;;;1.80;;
67156;SDS011;54086;50.126;8.710;2023-03-13T07:50:01;5.28;;;1.48;;
67156;SDS011;54086;50.126;8.710;2023-03-13T07:52:26;7.25;;;1.92;;
67156;SDS011;54086;50.126;8.710;2023-03-13T07:54:52;5.07;;;1.60;;
67156;SDS011;54086;50.126;8.710;2023-03-13T07:57:18;8.05;;;1.75;;
67156;SDS011;54086;50.126;8.710;2023-03-13T07:59:44;4.95;;;1.45;;
67156;SDS011;54086;50.126;8.710;2023-03-13T08:02:10;4.40;;;1.40;;
67156;SDS011;54086;50.126;8.710;2023-03-13T08:04:38;4.93;;;1.50;;
67156;SDS011;54086;50.126;8.710;2023-03-13T08:07:08;4.73;;;1.83;;
67156;SDS011;54086;50.126;8.710;2023-03-13T08:09:34;6.68;;;2.05;;
67156;SDS011;54086;50.126;8.710;2023-03-13T08:12:00;6.87;;;1.80;;
67156;SDS011;54086;50.126;8.710;2023-03-13T08:14:25;4.70;;;1.35;;
67156;SDS011;54086;50.126;8.710;2023-03-13T08:16:51;5.67;;;1.70;;
67156;SDS011;54086;50.126;8.710;2023-03-13T08:19:17;5.30;;;1.50;;
67156;SDS011;54086;50.126;8.710;2023-03-13T08:21:43;6.15;;;1.50;;
67156;SDS011;54086;50.126;8.710;2023-03-13T08:24:09;5.63;;;1.57;;
67156;SDS011;54086;50.126;8.710;2023-03-13T08:26:37;4.75;;;1.73;;
67156;SDS011;54086;50.126;8.710;2023-03-13T08:29:05;5.90;;;1.60;;
67156;SDS011;54086;50.126;8.710;2023-03-13T08:31:34;5.55;;;2.10;;
67156;SDS011;54086;50.126;8.710;2023-03-13T08:34:01;6.18;;;2.10;;
67156;SDS011;54086;50.126;8.710;2023-03-13T08:36:31;6.35;;;2.30;;
67156;SDS011;54086;50.126;8.710;2023-03-13T08:39:00;5.40;;;2.13;;
67156;SDS011;54086;50.126;8.710;2023-03-13T08:41:28;6.15;;;2.55;;
67156;SDS011;54086;50.126;8.710;2023-03-13T08:43:56;10.73;;;2.60;;
67156;SDS011;54086;50.126;8.710;2023-03-13T08:46:22;6.22;;;2.33;;
67156;SDS011;54086;50.126;8.710;2023-03-13T08:48:49;6.73;;;2.53;;
67156;SDS011;54086;50.126;8.710;2023-03-13T08:51:15;6.30;;;2.80;;
67156;SDS011;54086;50.126;8.710;2023-03-13T08:53:42;6.28;;;2.60;;
67156;SDS011;54086;50.126;8.710;2023-03-13T08:56:08;7.97;;;2.80;;
67156;SDS011;54086;50.126;8.710;2023-03-13T08:58:36;6.28;;;2.85;;
67156;SDS011;54086;50.126;8.710;2023-03-13T09:01:02;7.13;;;2.80;;
67156;SDS011;54086;50.126;8.710;2023-03-13T09:03:38;7.07;;;2.90;;
67156;SDS011;54086;50.126;8.710;2023-03-13T09:06:04;7.38;;;3.30;;
67156;SDS011;54086;50.126;8.710;2023-03-13T09:08:30;6.50;;;2.70;;
67156;SDS011;54086;50.126;8.710;2023-03-13T09:10:59;8.98;;;3.17;;
67156;SDS011;54086;50.126;8.710;2023-03-13T09:13:28;7.00;;;2.77;;
67156;SDS011;54086;50.126;8.710;2023-03-13T09:15:59;8.35;;;2.40;;
67156;SDS011;54086;50.126;8.710;2023-03-13T09:18:26;8.25;;;3.10;;
67156;SDS011;54086;50.126;8.710;2023-03-13T09:20:52;5.68;;;2.35;;
67156;SDS011;54086;50.126;8.710;2023-03-13T09:23:18;6.57;;;2.58;;
67156;SDS011;54086;50.126;8.710;2023-03-13T09:25:45;6.57;;;2.27;;
67156;SDS011;54086;50.126;8.710;2023-03-13T09:28:13;5.75;;;2.28;;
67156;SDS011;54086;50.126;8.710;2023-03-13T09:30:38;7.03;;;2.33;;
67156;SDS011;54086;50.126;8.710;2023-03-13T09:33:04;6.10;;;2.15;;
67156;SDS011;54086;50.126;8.710;2023-03-13T09:35:31;5.80;;;2.50;;
67156;SDS011;54086;50.126;8.710;2023-03-13T09:37:57;5.20;;;2.40;;
67156;SDS011;54086;50.126;8.710;2023-03-13T09:40:22;7.05;;;2.67;;
67156;SDS011;54086;50.126;8.710;2023-03-13T09:42:54;5.63;;;2.23;;
67156;SDS011;54086;50.126;8.710;2023-03-13T09:48:41;4.32;;;1.80;;
67156;SDS011;54086;50.126;8.710;2023-03-13T09:51:14;5.80;;;2.40;;
67156;SDS011;54086;50.126;8.710;2023-03-13T09:56:30;6.90;;;2.07;;
67156;SDS011;54086;50.126;8.710;2023-03-13T10:01:40;5.78;;;2.28;;
67156;SDS011;54086;50.126;8.710;2023-03-13T10:04:27;6.47;;;2.40;;
67156;SDS011;54086;50.126;8.710;2023-03-13T10:07:08;5.78;;;2.30;;
67156;SDS011;54086;50.126;8.710;2023-03-13T10:09:35;7.10;;;2.30;;
67156;SDS011;54086;50.126;8.710;2023-03-13T10:17:32;5.78;;;2.20;;
67156;SDS011;54086;50.126;8.710;2023-03-13T10:23:14;6.37;;;2.50;;
67156;SDS011;54086;50.126;8.710;2023-03-13T10:25:46;9.07;;;2.40;;
67156;SDS011;54086;50.126;8.710;2023-03-13T10:28:12;7.70;;;2.83;;
67156;SDS011;54086;50.126;8.710;2023-03-13T10:30:46;9.05;;;2.30;;
67156;SDS011;54086;50.126;8.710;2023-03-13T10:33:26;7.75;;;2.70;;
67156;SDS011;54086;50.126;8.710;2023-03-13T10:36:00;7.28;;;2.90;;
67156;SDS011;54086;50.126;8.710;2023-03-13T10:38:29;6.13;;;2.72;;
67156;SDS011;54086;50.126;8.710;2023-03-13T10:40:59;6.73;;;2.70;;
67156;SDS011;54086;50.126;8.710;2023-03-13T10:43:31;7.63;;;2.75;;
67156;SDS011;54086;50.126;8.710;2023-03-13T10:45:56;7.50;;;2.93;;
67156;SDS011;54086;50.126;8.710;2023-03-13T10:48:24;10.13;;;2.90;;
67156;SDS011;54086;50.126;8.710;2023-03-13T10:50:52;6.95;;;2.50;;
67156;SDS011;54086;50.126;8.710;2023-03-13T10:55:53;7.47;;;3.00;;
67156;SDS011;54086;50.126;8.710;2023-03-13T10:58:35;8.18;;;2.92;;
67156;SDS011;54086;50.126;8.710;2023-03-13T11:01:38;7.13;;;2.70;;
67156;SDS011;54086;50.126;8.710;2023-03-13T11:07:05;6.35;;;2.70;;
67156;SDS011;54086;50.126;8.710;2023-03-13T11:09:41;6.20;;;3.00;;
67156;SDS011;54086;50.126;8.710;2023-03-13T11:12:12;6.53;;;3.03;;
67156;SDS011;54086;50.126;8.710;2023-03-13T11:14:44;6.77;;;2.90;;
67156;SDS011;54086;50.126;8.710;2023-03-13T11:23:16;7.93;;;3.50;;
67156;SDS011;54086;50.126;8.710;2023-03-13T11:28:32;8.68;;;2.50;;
67156;SDS011;54086;50.126;8.710;2023-03-13T11:31:40;6.20;;;2.80;;
67156;SDS011;54086;50.126;8.710;2023-03-13T11:34:11;7.82;;;2.92;;
67156;SDS011;54086;50.126;8.710;2023-03-13T11:37:11;8.05;;;2.50;;
67156;SDS011;54086;50.126;8.710;2023-03-13T11:48:44;6.30;;;2.53;;
67156;SDS011;54086;50.126;8.710;2023-03-13T11:51:28;7.70;;;2.60;;
67156;SDS011;54086;50.126;8.710;2023-03-13T11:56:56;8.27;;;2.50;;
67156;SDS011;54086;50.126;8.710;2023-03-13T11:59:47;11.10;;;2.40;;
67156;SDS011;54086;50.126;8.710;2023-03-13T12:02:17;6.85;;;2.40;;
67156;SDS011;54086;50.126;8.710;2023-03-13T12:04:45;7.95;;;2.15;;
67156;SDS011;54086;50.126;8.710;2023-03-13T12:07:20;6.33;;;2.23;;
67156;SDS011;54086;50.126;8.710;2023-03-13T12:10:01;7.55;;;2.47;;
67156;SDS011;54086;50.126;8.710;2023-03-13T12:23:16;7.13;;;2.33;;
67156;SDS011;54086;50.126;8.710;2023-03-13T12:25:51;9.95;;;2.67;;
67156;SDS011;54086;50.126;8.710;2023-03-13T12:37:15;8.95;;;2.75;;
67156;SDS011;54086;50.126;8.710;2023-03-13T12:39:53;8.05;;;2.95;;
67156;SDS011;54086;50.126;8.710;2023-03-13T12:45:00;7.38;;;2.75;;
67156;SDS011;54086;50.126;8.710;2023-03-13T12:50:00;7.85;;;2.30;;
67156;SDS011;54086;50.126;8.710;2023-03-13T12:58:25;8.40;;;3.10;;
67156;SDS011;54086;50.126;8.710;2023-03-13T13:01:01;8.02;;;2.72;;
67156;SDS011;54086;50.126;8.710;2023-03-13T13:03:30;8.15;;;3.08;;
67156;SDS011;54086;50.126;8.710;2023-03-13T13:06:13;9.07;;;3.05;;
67156;SDS011;54086;50.126;8.710;2023-03-13T13:09:02;7.07;;;2.30;;
67156;SDS011;54086;50.126;8.710;2023-03-13T13:13:57;8.17;;;2.50;;
67156;SDS011;54086;50.126;8.710;2023-03-13T13:16:23;8.13;;;2.97;;
67156;SDS011;54086;50.126;8.710;2023-03-13T13:18:50;8.13;;;2.70;;
67156;SDS011;54086;50.126;8.710;2023-03-13T13:23:45;7.88;;;2.83;;
67156;SDS011;54086;50.126;8.710;2023-03-13T13:28:57;9.27;;;3.03;;
67156;SDS011;54086;50.126;8.710;2023-03-13T13:36:52;8.88;;;3.55;;
67156;SDS011;54086;50.126;8.710;2023-03-13T13:39:31;8.68;;;3.63;;
67156;SDS011;54086;50.126;8.710;2023-03-13T13:45:00;9.87;;;3.53;;
67156;SDS011;54086;50.126;8.710;2023-03-13T13:47:28;7.88;;;3.00;;
67156;SDS011;54086;50.126;8.710;2023-03-13T13:49:56;8.45;;;3.25;;
67156;SDS011;54086;50.126;8.710;2023-03-13T13:57:45;8.40;;;3.00;;
67156;SDS011;54086;50.126;8.710;2023-03-13T14:00:17;9.75;;;2.88;;
67156;SDS011;54086;50.126;8.710;2023-03-13T14:02:49;7.20;;;3.15;;
67156;SDS011;54086;50.126;8.710;2023-03-13T14:05:29;5.90;;;2.22;;
67156;SDS011;54086;50.126;8.710;2023-03-13T14:08:03;8.18;;;2.80;;
67156;SDS011;54086;50.126;8.710;2023-03-13T14:10:42;9.50;;;3.93;;
67156;SDS011;54086;50.126;8.710;2023-03-13T14:15:46;6.70;;;2.75;;
67156;SDS011;54086;50.126;8.710;2023-03-13T14:18:23;8.57;;;2.63;;
67156;SDS011;54086;50.126;8.710;2023-03-13T14:20:53;7.38;;;2.67;;
67156;SDS011;54086;50.126;8.710;2023-03-13T14:23:35;8.53;;;2.97;;
67156;SDS011;54086;50.126;8.710;2023-03-13T14:26:18;9.13;;;2.80;;
67156;SDS011;54086;50.126;8.710;2023-03-13T14:31:26;6.78;;;2.53;;
67156;SDS011;54086;50.126;8.710;2023-03-13T14:33:57;7.28;;;2.28;;
67156;SDS011;54086;50.126;8.710;2023-03-13T14:36:44;8.53;;;1.90;;
67156;SDS011;54086;50.126;8.710;2023-03-13T14:39:18;6.20;;;1.83;;
67156;SDS011;54086;50.126;8.710;2023-03-13T14:42:14;5.70;;;1.98;;
67156;SDS011;54086;50.126;8.710;2023-03-13T14:44:41;6.38;;;1.92;;
67156;SDS011;54086;50.126;8.710;2023-03-13T14:47:18;5.28;;;1.70;;
67156;SDS011;54086;50.126;8.710;2023-03-13T14:49:53;4.17;;;1.50;;
67156;SDS011;54086;50.126;8.710;2023-03-13T14:52:29;4.22;;;1.52;;
67156;SDS011;54086;50.126;8.710;2023-03-13T14:55:02;5.90;;;1.90;;
67156;SDS011;54086;50.126;8.710;2023-03-13T14:57:32;5.25;;;1.70;;
67156;SDS011;54086;50.126;8.710;2023-03-13T15:02:50;4.40;;;1.73;;
67156;SDS011;54086;50.126;8.710;2023-03-13T15:05:31;7.03;;;2.00;;
67156;SDS011;54086;50.126;8.710;2023-03-13T15:07:57;4.57;;;1.50;;
67156;SDS011;54086;50.126;8.710;2023-03-13T15:10:24;4.13;;;1.50;;
67156;SDS011;54086;50.126;8.710;2023-03-13T15:12:55;5.27;;;1.67;;
67156;SDS011;54086;50.126;8.710;2023-03-13T15:15:21;6.35;;;2.30;;
67156;SDS011;54086;50.126;8.710;2023-03-13T15:17:46;8.03;;;2.80;;
67156;SDS011;54086;50.126;8.710;2023-03-13T15:20:12;7.87;;;3.33;;
67156;SDS011;54086;50.126;8.710;2023-03-13T15:22:39;11.98;;;2.90;;
67156;SDS011;54086;50.126;8.710;2023-03-13T15:25:17;8.10;;;2.10;;
67156;SDS011;54086;50.126;8.710;2023-03-13T15:27:44;8.05;;;2.20;;
67156;SDS011;54086;50.126;8.710;2023-03-13T15:30:16;8.00;;;3.53;;
67156;SDS011;54086;50.126;8.710;2023-03-13T15:32:43;8.15;;;1.90;;
67156;SDS011;54086;50.126;8.710;2023-03-13T15:35:32;5.47;;;1.70;;
67156;SDS011;54086;50.126;8.710;2023-03-13T15:37:57;4.78;;;1.10;;
67156;SDS011;54086;50.126;8.710;2023-03-13T15:40:25;6.07;;;1.50;;
67156;SDS011;54086;50.126;8.710;2023-03-13T15:42:51;6.10;;;1.40;;
67156;SDS011;54086;50.126;8.710;2023-03-13T15:45:18;5.32;;;1.25;;
67156;SDS011;54086;50.126;8.710;2023-03-13T15:47:43;5.33;;;1.40;;
67156;SDS011;54086;50.126;8.710;2023-03-13T15:50:13;5.57;;;1.80;;
67156;SDS011;54086;50.126;8.710;2023-03-13T15:52:39;5.03;;;1.67;;
67156;SDS011;54086;50.126;8.710;2023-03-13T15:55:05;7.37;;;1.80;;
67156;SDS011;54086;50.126;8.710;2023-03-13T15:57:34;5.72;;;1.23;;
67156;SDS011;54086;50.126;8.710;2023-03-13T16:00:00;4.90;;;1.48;;
67156;SDS011;54086;50.126;8.710;2023-03-13T16:02:26;6.47;;;1.77;;
67156;SDS011;54086;50.126;8.710;2023-03-13T16:04:51;6.17;;;1.77;;
67156;SDS011;54086;50.126;8.710;2023-03-13T16:07:18;4.70;;;1.50;;
67156;SDS011;54086;50.126;8.710;2023-03-13T16:09:46;9.65;;;1.85;;
67156;SDS011;54086;50.126;8.710;2023-03-13T16:12:11;5.32;;;1.88;;
67156;SDS011;54086;50.126;8.710;2023-03-13T16:14:37;5.90;;;2.20;;
67156;SDS011;54086;50.126;8.710;2023-03-13T16:17:09;5.05;;;1.90;;
67156;SDS011;54086;50.126;8.710;2023-03-13T16:19:38;7.35;;;2.25;;
67156;SDS011;54086;50.126;8.710;2023-03-13T16:22:03;7.13;;;2.20;;
67156;SDS011;54086;50.126;8.710;2023-03-13T16:24:28;6.83;;;1.97;;
67156;SDS011;54086;50.126;8.710;2023-03-13T16:26:54;5.17;;;1.60;;
67156;SDS011;54086;50.126;8.710;2023-03-13T16:29:19;6.40;;;1.67;;
67156;SDS011;54086;50.126;8.710;2023-03-13T16:31:44;5.00;;;1.40;;
67156;SDS011;54086;50.126;8.710;2023-03-13T16:34:10;5.43;;;1.77;;
67156;SDS011;54086;50.126;8.710;2023-03-13T16:36:35;5.17;;;1.87;;
67156;SDS011;54086;50.126;8.710;2023-03-13T16:39:03;5.10;;;1.60;;
67156;SDS011;54086;50.126;8.710;2023-03-13T16:41:32;5.28;;;1.80;;
67156;SDS011;54086;50.126;8.710;2023-03-13T16:43:57;6.67;;;2.13;;